sensor_id;sensor_type;location;lat;lon;timestamp;P1;durP1;ratioP1;P2;durP2;ratioP2
4630;SDS011;2328;48.170;11.602;2023-02-16T00:01:19;10.20;;;4.13;;
4630;SDS011;2328;48.170;11.602;2023-02-16T00:03:49;36.13;;;4.93;;
4630;SDS011;2328;48.170;11.602;2023-02-16T00:06:18;13.10;;;5.50;;
4630;SDS011;2328;48.170;11.602;2023-02-16T00:08:47;12.53;;;5.80;;
4630;SDS011;2328;48.170;11.602;2023-02-16T00:11:17;8.17;;;4.00;;
4630;SDS011;2328;48.170;11.602;2023-02-16T00:14:04;17.93;;;4.43;;
4630;SDS011;2328;48.170;11.602;2023-02-16T00:16:33;10.87;;;5.50;;
4630;SDS011;2328;48.170;11.602;2023-02-16T00:19:07;17.80;;;3.80;;
4630;SDS011;2328;48.170;11.602;2023-02-16T00:21:39;22.77;;;4.50;;
4630;SDS011;2328;48.170;11.602;2023-02-16T00:24:08;9.67;;;4.77;;
4630;SDS011;2328;48.170;11.602;2023-02-16T00:26:36;7.90;;;4.57;;
4630;SDS011;2328;48.170;11.602;2023-02-16T00:29:04;36.27;;;3.93;;
4630;SDS011;2328;48.170;11.602;2023-02-16T00:31:32;7.87;;;4.17;;
4630;SDS011;2328;48.170;11.602;2023-02-16T00:34:05;9.93;;;5.30;;
4630;SDS011;2328;48.170;11.602;2023-02-16T00:36:44;6.70;;;3.87;;
4630;SDS011;2328;48.170;11.602;2023-02-16T00:39:12;7.67;;;4.00;;
4630;SDS011;2328;48.170;11.602;2023-02-16T00:41:40;4.23;;;3.83;;
4630;SDS011;2328;48.170;11.602;2023-02-16T00:44:19;5.97;;;4.23;;
4630;SDS011;2328;48.170;11.602;2023-02-16T00:46:48;3.63;;;3.10;;
4630;SDS011;2328;48.170;11.602;2023-02-16T00:49:17;7.30;;;4.43;;
4630;SDS011;2328;48.170;11.602;2023-02-16T00:51:47;6.97;;;3.67;;
4630;SDS011;2328;48.170;11.602;2023-02-16T00:54:16;7.53;;;4.03;;
4630;SDS011;2328;48.170;11.602;2023-02-16T00:56:44;9.30;;;4.50;;
4630;SDS011;2328;48.170;11.602;2023-02-16T00:59:13;5.03;;;4.47;;
4630;SDS011;2328;48.170;11.602;2023-02-16T01:01:43;7.57;;;4.47;;
4630;SDS011;2328;48.170;11.602;2023-02-16T01:04:15;7.13;;;4.63;;
4630;SDS011;2328;48.170;11.602;2023-02-16T01:06:46;6.90;;;3.40;;
4630;SDS011;2328;48.170;11.602;2023-02-16T01:09:33;11.77;;;4.73;;
4630;SDS011;2328;48.170;11.602;2023-02-16T01:12:19;8.40;;;4.00;;
4630;SDS011;2328;48.170;11.602;2023-02-16T01:14:49;4.57;;;3.80;;
4630;SDS011;2328;48.170;11.602;2023-02-16T01:17:18;6.90;;;4.47;;
4630;SDS011;2328;48.170;11.602;2023-02-16T01:19:46;5.60;;;3.73;;
4630;SDS011;2328;48.170;11.602;2023-02-16T01:22:16;6.83;;;4.20;;
4630;SDS011;2328;48.170;11.602;2023-02-16T01:24:45;10.17;;;4.70;;
4630;SDS011;2328;48.170;11.602;2023-02-16T01:27:13;7.53;;;4.47;;
4630;SDS011;2328;48.170;11.602;2023-02-16T01:29:42;10.13;;;4.93;;
4630;SDS011;2328;48.170;11.602;2023-02-16T01:32:10;7.20;;;4.00;;
4630;SDS011;2328;48.170;11.602;2023-02-16T01:34:39;6.60;;;3.40;;
4630;SDS011;2328;48.170;11.602;2023-02-16T01:37:11;3.83;;;3.43;;
4630;SDS011;2328;48.170;11.602;2023-02-16T01:39:41;7.83;;;4.00;;
4630;SDS011;2328;48.170;11.602;2023-02-16T01:44:57;5.60;;;3.97;;
4630;SDS011;2328;48.170;11.602;2023-02-16T01:47:33;7.13;;;4.23;;
4630;SDS011;2328;48.170;11.602;2023-02-16T01:50:09;10.67;;;4.73;;
4630;SDS011;2328;48.170;11.602;2023-02-16T01:52:40;7.97;;;4.00;;
4630;SDS011;2328;48.170;11.602;2023-02-16T01:55:14;7.33;;;3.43;;
4630;SDS011;2328;48.170;11.602;2023-02-16T01:57:45;10.27;;;4.13;;
4630;SDS011;2328;48.170;11.602;2023-02-16T02:00:15;4.70;;;4.03;;
4630;SDS011;2328;48.170;11.602;2023-02-16T02:02:49;4.87;;;2.60;;
4630;SDS011;2328;48.170;11.602;2023-02-16T02:05:23;7.30;;;4.60;;
4630;SDS011;2328;48.170;11.602;2023-02-16T02:08:02;6.17;;;4.00;;
4630;SDS011;2328;48.170;11.602;2023-02-16T02:10:34;11.30;;;4.90;;
4630;SDS011;2328;48.170;11.602;2023-02-16T02:13:07;9.20;;;3.50;;
4630;SDS011;2328;48.170;11.602;2023-02-16T02:15:36;3.80;;;2.90;;
4630;SDS011;2328;48.170;11.602;2023-02-16T02:18:04;8.60;;;4.93;;
4630;SDS011;2328;48.170;11.602;2023-02-16T02:20:39;8.73;;;4.60;;
4630;SDS011;2328;48.170;11.602;2023-02-16T02:23:31;6.37;;;3.70;;
4630;SDS011;2328;48.170;11.602;2023-02-16T02:28:50;4.07;;;3.13;;
4630;SDS011;2328;48.170;11.602;2023-02-16T02:31:22;8.40;;;4.70;;
4630;SDS011;2328;48.170;11.602;2023-02-16T02:33:54;4.27;;;3.40;;
4630;SDS011;2328;48.170;11.602;2023-02-16T02:36:27;5.87;;;3.07;;
4630;SDS011;2328;48.170;11.602;2023-02-16T02:39:00;5.40;;;3.00;;
4630;SDS011;2328;48.170;11.602;2023-02-16T02:41:33;9.00;;;4.10;;
4630;SDS011;2328;48.170;11.602;2023-02-16T02:44:23;5.50;;;3.93;;
4630;SDS011;2328;48.170;11.602;2023-02-16T02:46:53;9.30;;;4.00;;
4630;SDS011;2328;48.170;11.602;2023-02-16T02:49:22;5.47;;;3.83;;
4630;SDS011;2328;48.170;11.602;2023-02-16T02:51:51;7.50;;;4.07;;
4630;SDS011;2328;48.170;11.602;2023-02-16T02:54:20;6.37;;;4.00;;
4630;SDS011;2328;48.170;11.602;2023-02-16T02:57:09;7.40;;;4.47;;
4630;SDS011;2328;48.170;11.602;2023-02-16T03:00:00;6.10;;;4.23;;
4630;SDS011;2328;48.170;11.602;2023-02-16T03:02:48;5.03;;;3.10;;
4630;SDS011;2328;48.170;11.602;2023-02-16T03:05:17;8.20;;;4.00;;
4630;SDS011;2328;48.170;11.602;2023-02-16T03:07:46;7.00;;;4.33;;
4630;SDS011;2328;48.170;11.602;2023-02-16T03:10:17;6.60;;;3.33;;
4630;SDS011;2328;48.170;11.602;2023-02-16T03:13:04;4.90;;;3.77;;
4630;SDS011;2328;48.170;11.602;2023-02-16T03:15:35;5.30;;;3.33;;
4630;SDS011;2328;48.170;11.602;2023-02-16T03:18:05;4.40;;;3.53;;
4630;SDS011;2328;48.170;11.602;2023-02-16T03:20:52;6.40;;;4.10;;
4630;SDS011;2328;48.170;11.602;2023-02-16T03:23:38;4.43;;;3.63;;
4630;SDS011;2328;48.170;11.602;2023-02-16T03:26:25;5.50;;;3.57;;
4630;SDS011;2328;48.170;11.602;2023-02-16T03:29:11;7.30;;;4.37;;
4630;SDS011;2328;48.170;11.602;2023-02-16T03:31:48;12.57;;;3.90;;
4630;SDS011;2328;48.170;11.602;2023-02-16T03:34:17;10.17;;;3.40;;
4630;SDS011;2328;48.170;11.602;2023-02-16T03:36:47;3.10;;;2.70;;
4630;SDS011;2328;48.170;11.602;2023-02-16T03:39:15;6.63;;;3.93;;
4630;SDS011;2328;48.170;11.602;2023-02-16T03:41:45;7.17;;;3.87;;
4630;SDS011;2328;48.170;11.602;2023-02-16T03:44:15;4.57;;;3.63;;
4630;SDS011;2328;48.170;11.602;2023-02-16T03:46:44;7.57;;;4.20;;
4630;SDS011;2328;48.170;11.602;2023-02-16T03:49:16;5.17;;;3.57;;
4630;SDS011;2328;48.170;11.602;2023-02-16T03:51:44;5.27;;;3.67;;
4630;SDS011;2328;48.170;11.602;2023-02-16T03:54:13;6.40;;;3.83;;
4630;SDS011;2328;48.170;11.602;2023-02-16T03:56:41;4.57;;;3.17;;
4630;SDS011;2328;48.170;11.602;2023-02-16T03:59:09;5.70;;;3.93;;
4630;SDS011;2328;48.170;11.602;2023-02-16T04:01:37;5.50;;;3.60;;
4630;SDS011;2328;48.170;11.602;2023-02-16T04:04:06;5.27;;;3.90;;
4630;SDS011;2328;48.170;11.602;2023-02-16T04:06:36;3.67;;;2.87;;
4630;SDS011;2328;48.170;11.602;2023-02-16T04:09:04;6.20;;;4.10;;
4630;SDS011;2328;48.170;11.602;2023-02-16T04:11:32;7.13;;;4.40;;
4630;SDS011;2328;48.170;11.602;2023-02-16T04:14:18;6.50;;;3.50;;
4630;SDS011;2328;48.170;11.602;2023-02-16T04:16:46;7.17;;;3.53;;
4630;SDS011;2328;48.170;11.602;2023-02-16T04:19:15;5.90;;;3.37;;
4630;SDS011;2328;48.170;11.602;2023-02-16T04:21:45;6.90;;;3.80;;
4630;SDS011;2328;48.170;11.602;2023-02-16T04:24:13;4.27;;;3.17;;
4630;SDS011;2328;48.170;11.602;2023-02-16T04:26:41;6.50;;;3.87;;
4630;SDS011;2328;48.170;11.602;2023-02-16T04:29:12;5.23;;;3.80;;
4630;SDS011;2328;48.170;11.602;2023-02-16T04:31:40;6.47;;;3.30;;
4630;SDS011;2328;48.170;11.602;2023-02-16T04:34:08;7.20;;;3.57;;
4630;SDS011;2328;48.170;11.602;2023-02-16T04:36:37;4.20;;;3.53;;
4630;SDS011;2328;48.170;11.602;2023-02-16T04:39:06;4.13;;;3.03;;
4630;SDS011;2328;48.170;11.602;2023-02-16T04:41:35;6.50;;;3.70;;
4630;SDS011;2328;48.170;11.602;2023-02-16T04:44:03;4.23;;;3.67;;
4630;SDS011;2328;48.170;11.602;2023-02-16T04:46:32;4.30;;;3.20;;
4630;SDS011;2328;48.170;11.602;2023-02-16T04:49:00;5.73;;;4.10;;
4630;SDS011;2328;48.170;11.602;2023-02-16T04:51:28;4.07;;;3.17;;
4630;SDS011;2328;48.170;11.602;2023-02-16T04:53:57;3.67;;;3.37;;
4630;SDS011;2328;48.170;11.602;2023-02-16T04:56:27;7.50;;;3.90;;
4630;SDS011;2328;48.170;11.602;2023-02-16T04:58:55;4.57;;;2.80;;
4630;SDS011;2328;48.170;11.602;2023-02-16T05:01:24;2.77;;;2.50;;
4630;SDS011;2328;48.170;11.602;2023-02-16T05:03:53;6.10;;;3.00;;
4630;SDS011;2328;48.170;11.602;2023-02-16T05:06:21;4.07;;;3.50;;
4630;SDS011;2328;48.170;11.602;2023-02-16T05:08:56;8.00;;;2.90;;
4630;SDS011;2328;48.170;11.602;2023-02-16T05:11:24;12.33;;;3.70;;
4630;SDS011;2328;48.170;11.602;2023-02-16T05:14:13;4.97;;;3.10;;
4630;SDS011;2328;48.170;11.602;2023-02-16T05:17:02;2.73;;;2.43;;
4630;SDS011;2328;48.170;11.602;2023-02-16T05:19:30;6.83;;;2.70;;
4630;SDS011;2328;48.170;11.602;2023-02-16T05:21:58;4.90;;;3.17;;
4630;SDS011;2328;48.170;11.602;2023-02-16T05:24:29;5.93;;;3.57;;
4630;SDS011;2328;48.170;11.602;2023-02-16T05:26:57;4.20;;;3.47;;
4630;SDS011;2328;48.170;11.602;2023-02-16T05:29:27;4.30;;;3.60;;
4630;SDS011;2328;48.170;11.602;2023-02-16T05:31:55;6.00;;;3.40;;
4630;SDS011;2328;48.170;11.602;2023-02-16T05:34:24;5.03;;;3.33;;
4630;SDS011;2328;48.170;11.602;2023-02-16T05:36:52;4.93;;;2.63;;
4630;SDS011;2328;48.170;11.602;2023-02-16T05:39:21;6.77;;;3.93;;
4630;SDS011;2328;48.170;11.602;2023-02-16T05:41:49;3.70;;;2.80;;
4630;SDS011;2328;48.170;11.602;2023-02-16T05:44:19;4.77;;;3.30;;
4630;SDS011;2328;48.170;11.602;2023-02-16T05:46:49;4.30;;;2.83;;
4630;SDS011;2328;48.170;11.602;2023-02-16T05:49:17;5.13;;;3.17;;
4630;SDS011;2328;48.170;11.602;2023-02-16T05:51:45;2.80;;;2.60;;
4630;SDS011;2328;48.170;11.602;2023-02-16T05:54:14;4.00;;;2.63;;
4630;SDS011;2328;48.170;11.602;2023-02-16T05:56:43;4.60;;;2.77;;
4630;SDS011;2328;48.170;11.602;2023-02-16T05:59:12;3.57;;;3.00;;
4630;SDS011;2328;48.170;11.602;2023-02-16T06:01:41;3.17;;;2.60;;
4630;SDS011;2328;48.170;11.602;2023-02-16T06:04:12;4.63;;;2.50;;
4630;SDS011;2328;48.170;11.602;2023-02-16T06:06:41;3.87;;;2.70;;
4630;SDS011;2328;48.170;11.602;2023-02-16T06:09:09;1.77;;;1.63;;
4630;SDS011;2328;48.170;11.602;2023-02-16T06:11:37;4.40;;;2.60;;
4630;SDS011;2328;48.170;11.602;2023-02-16T06:14:06;3.73;;;3.40;;
4630;SDS011;2328;48.170;11.602;2023-02-16T06:16:36;4.60;;;2.70;;
4630;SDS011;2328;48.170;11.602;2023-02-16T06:19:05;7.93;;;4.90;;
4630;SDS011;2328;48.170;11.602;2023-02-16T06:21:35;5.33;;;3.20;;
4630;SDS011;2328;48.170;11.602;2023-02-16T06:24:03;7.20;;;3.20;;
4630;SDS011;2328;48.170;11.602;2023-02-16T06:26:32;3.83;;;2.60;;
4630;SDS011;2328;48.170;11.602;2023-02-16T06:29:00;3.30;;;2.87;;
4630;SDS011;2328;48.170;11.602;2023-02-16T06:31:29;4.43;;;2.77;;
4630;SDS011;2328;48.170;11.602;2023-02-16T06:34:01;4.13;;;2.60;;
4630;SDS011;2328;48.170;11.602;2023-02-16T06:36:30;5.30;;;3.23;;
4630;SDS011;2328;48.170;11.602;2023-02-16T06:39:00;4.60;;;2.90;;
4630;SDS011;2328;48.170;11.602;2023-02-16T06:41:29;3.87;;;2.87;;
4630;SDS011;2328;48.170;11.602;2023-02-16T06:44:02;6.57;;;3.50;;
4630;SDS011;2328;48.170;11.602;2023-02-16T06:46:30;3.70;;;3.13;;
4630;SDS011;2328;48.170;11.602;2023-02-16T06:48:59;3.47;;;2.67;;
4630;SDS011;2328;48.170;11.602;2023-02-16T06:51:27;4.50;;;2.83;;
4630;SDS011;2328;48.170;11.602;2023-02-16T06:53:55;3.13;;;2.30;;
4630;SDS011;2328;48.170;11.602;2023-02-16T06:56:26;2.57;;;2.13;;
4630;SDS011;2328;48.170;11.602;2023-02-16T06:58:54;3.80;;;2.40;;
4630;SDS011;2328;48.170;11.602;2023-02-16T07:01:22;6.17;;;3.90;;
4630;SDS011;2328;48.170;11.602;2023-02-16T07:03:53;6.50;;;3.00;;
4630;SDS011;2328;48.170;11.602;2023-02-16T07:06:22;4.33;;;3.47;;
4630;SDS011;2328;48.170;11.602;2023-02-16T07:08:51;4.40;;;3.47;;
4630;SDS011;2328;48.170;11.602;2023-02-16T07:11:20;3.27;;;2.10;;
4630;SDS011;2328;48.170;11.602;2023-02-16T07:13:50;2.70;;;2.30;;
4630;SDS011;2328;48.170;11.602;2023-02-16T07:16:18;3.37;;;2.40;;
4630;SDS011;2328;48.170;11.602;2023-02-16T07:18:47;3.10;;;2.90;;
4630;SDS011;2328;48.170;11.602;2023-02-16T07:21:15;6.33;;;2.93;;
4630;SDS011;2328;48.170;11.602;2023-02-16T07:23:43;4.03;;;2.83;;
4630;SDS011;2328;48.170;11.602;2023-02-16T07:26:18;2.87;;;2.67;;
4630;SDS011;2328;48.170;11.602;2023-02-16T07:28:46;4.63;;;3.00;;
4630;SDS011;2328;48.170;11.602;2023-02-16T07:31:16;4.83;;;3.30;;
4630;SDS011;2328;48.170;11.602;2023-02-16T07:33:45;6.40;;;3.80;;
4630;SDS011;2328;48.170;11.602;2023-02-16T07:36:13;4.50;;;2.70;;
4630;SDS011;2328;48.170;11.602;2023-02-16T07:38:42;7.67;;;3.73;;
4630;SDS011;2328;48.170;11.602;2023-02-16T07:41:10;6.37;;;3.37;;
4630;SDS011;2328;48.170;11.602;2023-02-16T07:43:39;4.70;;;3.30;;
4630;SDS011;2328;48.170;11.602;2023-02-16T07:46:08;8.23;;;4.23;;
4630;SDS011;2328;48.170;11.602;2023-02-16T07:48:38;7.20;;;4.50;;
4630;SDS011;2328;48.170;11.602;2023-02-16T07:51:08;9.60;;;5.23;;
4630;SDS011;2328;48.170;11.602;2023-02-16T07:53:36;6.93;;;4.43;;
4630;SDS011;2328;48.170;11.602;2023-02-16T07:56:05;5.83;;;4.23;;
4630;SDS011;2328;48.170;11.602;2023-02-16T07:58:34;6.87;;;4.40;;
4630;SDS011;2328;48.170;11.602;2023-02-16T08:01:06;8.70;;;4.90;;
4630;SDS011;2328;48.170;11.602;2023-02-16T08:03:35;13.27;;;5.50;;
4630;SDS011;2328;48.170;11.602;2023-02-16T08:06:05;28.37;;;9.23;;
4630;SDS011;2328;48.170;11.602;2023-02-16T08:08:34;23.13;;;8.23;;
4630;SDS011;2328;48.170;11.602;2023-02-16T08:11:06;18.07;;;6.77;;
4630;SDS011;2328;48.170;11.602;2023-02-16T08:13:35;13.10;;;5.23;;
4630;SDS011;2328;48.170;11.602;2023-02-16T08:16:06;7.83;;;4.70;;
4630;SDS011;2328;48.170;11.602;2023-02-16T08:18:35;9.80;;;5.23;;
4630;SDS011;2328;48.170;11.602;2023-02-16T08:21:09;5.57;;;4.47;;
4630;SDS011;2328;48.170;11.602;2023-02-16T08:23:40;7.50;;;4.33;;
4630;SDS011;2328;48.170;11.602;2023-02-16T08:26:13;6.20;;;3.77;;
4630;SDS011;2328;48.170;11.602;2023-02-16T08:28:42;4.37;;;3.67;;
4630;SDS011;2328;48.170;11.602;2023-02-16T08:31:12;6.20;;;3.70;;
4630;SDS011;2328;48.170;11.602;2023-02-16T08:33:42;4.57;;;3.30;;
4630;SDS011;2328;48.170;11.602;2023-02-16T08:36:17;5.70;;;3.87;;
4630;SDS011;2328;48.170;11.602;2023-02-16T08:38:46;4.70;;;3.70;;
4630;SDS011;2328;48.170;11.602;2023-02-16T08:41:16;6.83;;;4.00;;
4630;SDS011;2328;48.170;11.602;2023-02-16T08:43:44;4.17;;;3.27;;
4630;SDS011;2328;48.170;11.602;2023-02-16T08:46:13;4.77;;;2.87;;
4630;SDS011;2328;48.170;11.602;2023-02-16T08:48:42;5.27;;;3.53;;
4630;SDS011;2328;48.170;11.602;2023-02-16T08:51:12;8.13;;;3.50;;
4630;SDS011;2328;48.170;11.602;2023-02-16T08:53:43;7.10;;;3.53;;
4630;SDS011;2328;48.170;11.602;2023-02-16T08:56:12;4.77;;;3.53;;
4630;SDS011;2328;48.170;11.602;2023-02-16T08:58:42;7.83;;;4.77;;
4630;SDS011;2328;48.170;11.602;2023-02-16T09:01:11;7.27;;;4.33;;
4630;SDS011;2328;48.170;11.602;2023-02-16T09:03:41;8.80;;;4.60;;
4630;SDS011;2328;48.170;11.602;2023-02-16T09:06:10;7.97;;;4.37;;
4630;SDS011;2328;48.170;11.602;2023-02-16T09:08:39;9.13;;;4.80;;
4630;SDS011;2328;48.170;11.602;2023-02-16T09:11:11;7.30;;;4.33;;
4630;SDS011;2328;48.170;11.602;2023-02-16T09:13:39;6.90;;;4.37;;
4630;SDS011;2328;48.170;11.602;2023-02-16T09:16:09;11.07;;;4.60;;
4630;SDS011;2328;48.170;11.602;2023-02-16T09:18:38;4.33;;;3.50;;
4630;SDS011;2328;48.170;11.602;2023-02-16T09:21:09;6.80;;;4.00;;
4630;SDS011;2328;48.170;11.602;2023-02-16T09:23:39;7.40;;;3.70;;
4630;SDS011;2328;48.170;11.602;2023-02-16T09:26:11;5.67;;;3.50;;
4630;SDS011;2328;48.170;11.602;2023-02-16T09:28:40;8.80;;;4.10;;
4630;SDS011;2328;48.170;11.602;2023-02-16T09:31:09;7.97;;;3.60;;
4630;SDS011;2328;48.170;11.602;2023-02-16T09:33:38;12.57;;;5.00;;
4630;SDS011;2328;48.170;11.602;2023-02-16T09:36:07;7.93;;;4.47;;
4630;SDS011;2328;48.170;11.602;2023-02-16T09:38:36;8.87;;;4.40;;
4630;SDS011;2328;48.170;11.602;2023-02-16T09:41:06;5.77;;;4.13;;
4630;SDS011;2328;48.170;11.602;2023-02-16T09:43:41;5.23;;;3.93;;
4630;SDS011;2328;48.170;11.602;2023-02-16T09:46:12;5.80;;;3.60;;
4630;SDS011;2328;48.170;11.602;2023-02-16T09:48:43;10.27;;;4.50;;
4630;SDS011;2328;48.170;11.602;2023-02-16T09:51:16;9.20;;;4.50;;
4630;SDS011;2328;48.170;11.602;2023-02-16T09:53:58;9.90;;;3.50;;
4630;SDS011;2328;48.170;11.602;2023-02-16T09:56:31;6.80;;;3.17;;
4630;SDS011;2328;48.170;11.602;2023-02-16T09:59:03;7.17;;;3.43;;
4630;SDS011;2328;48.170;11.602;2023-02-16T10:01:36;4.40;;;3.13;;
4630;SDS011;2328;48.170;11.602;2023-02-16T10:04:15;5.07;;;2.93;;
4630;SDS011;2328;48.170;11.602;2023-02-16T10:06:52;6.80;;;3.47;;
4630;SDS011;2328;48.170;11.602;2023-02-16T10:09:24;5.07;;;2.90;;
4630;SDS011;2328;48.170;11.602;2023-02-16T10:11:55;11.10;;;3.40;;
4630;SDS011;2328;48.170;11.602;2023-02-16T10:14:27;14.13;;;3.37;;
4630;SDS011;2328;48.170;11.602;2023-02-16T10:17:00;7.43;;;3.97;;
4630;SDS011;2328;48.170;11.602;2023-02-16T10:19:32;11.30;;;3.63;;
4630;SDS011;2328;48.170;11.602;2023-02-16T10:22:02;7.17;;;3.70;;
4630;SDS011;2328;48.170;11.602;2023-02-16T10:24:34;12.20;;;3.30;;
4630;SDS011;2328;48.170;11.602;2023-02-16T10:27:06;6.50;;;3.37;;
4630;SDS011;2328;48.170;11.602;2023-02-16T10:29:38;8.63;;;4.27;;
4630;SDS011;2328;48.170;11.602;2023-02-16T10:32:11;7.07;;;3.33;;
4630;SDS011;2328;48.170;11.602;2023-02-16T10:34:45;11.83;;;4.00;;
4630;SDS011;2328;48.170;11.602;2023-02-16T10:37:21;7.83;;;3.70;;
4630;SDS011;2328;48.170;11.602;2023-02-16T10:39:53;4.93;;;2.90;;
4630;SDS011;2328;48.170;11.602;2023-02-16T10:42:26;4.87;;;2.67;;
4630;SDS011;2328;48.170;11.602;2023-02-16T10:45:01;6.13;;;3.50;;
4630;SDS011;2328;48.170;11.602;2023-02-16T10:47:31;14.80;;;3.50;;
4630;SDS011;2328;48.170;11.602;2023-02-16T10:50:02;8.53;;;3.60;;
4630;SDS011;2328;48.170;11.602;2023-02-16T10:52:31;6.17;;;3.20;;
4630;SDS011;2328;48.170;11.602;2023-02-16T10:55:00;5.27;;;3.53;;
4630;SDS011;2328;48.170;11.602;2023-02-16T10:57:29;7.13;;;4.30;;
4630;SDS011;2328;48.170;11.602;2023-02-16T11:00:00;7.13;;;3.40;;
4630;SDS011;2328;48.170;11.602;2023-02-16T11:02:33;5.10;;;3.20;;
4630;SDS011;2328;48.170;11.602;2023-02-16T11:05:02;6.07;;;3.23;;
4630;SDS011;2328;48.170;11.602;2023-02-16T11:07:52;5.10;;;3.10;;
4630;SDS011;2328;48.170;11.602;2023-02-16T11:10:32;6.23;;;2.90;;
4630;SDS011;2328;48.170;11.602;2023-02-16T11:13:02;7.63;;;2.90;;
4630;SDS011;2328;48.170;11.602;2023-02-16T11:15:31;5.90;;;3.00;;
4630;SDS011;2328;48.170;11.602;2023-02-16T11:18:01;6.47;;;3.60;;
4630;SDS011;2328;48.170;11.602;2023-02-16T11:20:31;9.57;;;3.03;;
4630;SDS011;2328;48.170;11.602;2023-02-16T11:23:11;4.70;;;2.37;;
4630;SDS011;2328;48.170;11.602;2023-02-16T11:25:40;5.00;;;2.00;;
4630;SDS011;2328;48.170;11.602;2023-02-16T11:28:10;7.50;;;3.03;;
4630;SDS011;2328;48.170;11.602;2023-02-16T11:30:42;2.97;;;2.13;;
4630;SDS011;2328;48.170;11.602;2023-02-16T11:33:17;8.27;;;2.70;;
4630;SDS011;2328;48.170;11.602;2023-02-16T11:35:52;4.13;;;2.87;;
4630;SDS011;2328;48.170;11.602;2023-02-16T11:38:25;6.40;;;2.97;;
4630;SDS011;2328;48.170;11.602;2023-02-16T11:40:53;8.77;;;3.10;;
4630;SDS011;2328;48.170;11.602;2023-02-16T11:43:24;5.00;;;2.87;;
4630;SDS011;2328;48.170;11.602;2023-02-16T11:45:59;6.53;;;2.53;;
4630;SDS011;2328;48.170;11.602;2023-02-16T11:48:28;3.77;;;2.33;;
4630;SDS011;2328;48.170;11.602;2023-02-16T11:50:58;8.60;;;3.43;;
4630;SDS011;2328;48.170;11.602;2023-02-16T11:53:29;6.13;;;3.00;;
4630;SDS011;2328;48.170;11.602;2023-02-16T11:56:10;5.63;;;3.10;;
4630;SDS011;2328;48.170;11.602;2023-02-16T11:58:39;3.57;;;2.83;;
4630;SDS011;2328;48.170;11.602;2023-02-16T12:01:14;5.47;;;3.00;;
4630;SDS011;2328;48.170;11.602;2023-02-16T12:03:53;9.40;;;3.50;;
4630;SDS011;2328;48.170;11.602;2023-02-16T12:06:28;5.30;;;2.90;;
4630;SDS011;2328;48.170;11.602;2023-02-16T12:09:04;4.57;;;3.10;;
4630;SDS011;2328;48.170;11.602;2023-02-16T12:11:36;6.70;;;3.20;;
4630;SDS011;2328;48.170;11.602;2023-02-16T12:14:13;4.30;;;2.50;;
4630;SDS011;2328;48.170;11.602;2023-02-16T12:16:48;4.40;;;2.53;;
4630;SDS011;2328;48.170;11.602;2023-02-16T12:19:26;2.90;;;2.30;;
4630;SDS011;2328;48.170;11.602;2023-02-16T12:21:57;2.97;;;1.70;;
4630;SDS011;2328;48.170;11.602;2023-02-16T12:24:34;5.87;;;2.47;;
4630;SDS011;2328;48.170;11.602;2023-02-16T12:27:07;7.87;;;2.87;;
4630;SDS011;2328;48.170;11.602;2023-02-16T12:29:44;5.63;;;2.70;;
4630;SDS011;2328;48.170;11.602;2023-02-16T12:34:50;4.80;;;2.00;;
4630;SDS011;2328;48.170;11.602;2023-02-16T12:37:24;4.23;;;2.03;;
4630;SDS011;2328;48.170;11.602;2023-02-16T12:39:56;7.30;;;2.20;;
4630;SDS011;2328;48.170;11.602;2023-02-16T12:45:16;4.50;;;1.90;;
4630;SDS011;2328;48.170;11.602;2023-02-16T12:47:47;1.77;;;1.53;;
4630;SDS011;2328;48.170;11.602;2023-02-16T12:50:20;3.43;;;1.90;;
4630;SDS011;2328;48.170;11.602;2023-02-16T12:52:51;6.07;;;2.10;;
4630;SDS011;2328;48.170;11.602;2023-02-16T12:55:23;6.00;;;3.20;;
4630;SDS011;2328;48.170;11.602;2023-02-16T12:57:58;3.43;;;2.13;;
4630;SDS011;2328;48.170;11.602;2023-02-16T13:00:32;5.73;;;2.20;;
4630;SDS011;2328;48.170;11.602;2023-02-16T13:03:07;3.67;;;1.90;;
4630;SDS011;2328;48.170;11.602;2023-02-16T13:05:39;2.90;;;1.97;;
4630;SDS011;2328;48.170;11.602;2023-02-16T13:08:11;4.60;;;2.03;;
4630;SDS011;2328;48.170;11.602;2023-02-16T13:10:46;3.90;;;2.30;;
4630;SDS011;2328;48.170;11.602;2023-02-16T13:13:18;6.83;;;2.10;;
4630;SDS011;2328;48.170;11.602;2023-02-16T13:15:48;3.10;;;2.30;;
4630;SDS011;2328;48.170;11.602;2023-02-16T13:18:19;3.20;;;1.87;;
4630;SDS011;2328;48.170;11.602;2023-02-16T13:20:50;4.10;;;1.80;;
4630;SDS011;2328;48.170;11.602;2023-02-16T13:23:26;3.30;;;1.80;;
4630;SDS011;2328;48.170;11.602;2023-02-16T13:25:59;7.00;;;2.40;;
4630;SDS011;2328;48.170;11.602;2023-02-16T13:29:01;4.90;;;2.10;;
4630;SDS011;2328;48.170;11.602;2023-02-16T13:31:36;1.97;;;1.73;;
4630;SDS011;2328;48.170;11.602;2023-02-16T13:34:19;4.00;;;2.50;;
4630;SDS011;2328;48.170;11.602;2023-02-16T13:36:55;4.37;;;1.67;;
4630;SDS011;2328;48.170;11.602;2023-02-16T13:44:58;4.10;;;1.73;;
4630;SDS011;2328;48.170;11.602;2023-02-16T13:47:28;4.23;;;2.53;;
4630;SDS011;2328;48.170;11.602;2023-02-16T13:49:58;4.63;;;2.50;;
4630;SDS011;2328;48.170;11.602;2023-02-16T13:52:29;3.13;;;2.37;;
4630;SDS011;2328;48.170;11.602;2023-02-16T13:54:59;3.73;;;2.17;;
4630;SDS011;2328;48.170;11.602;2023-02-16T14:00:25;3.80;;;1.57;;
4630;SDS011;2328;48.170;11.602;2023-02-16T14:02:56;4.67;;;2.47;;
4630;SDS011;2328;48.170;11.602;2023-02-16T14:05:31;4.03;;;2.03;;
4630;SDS011;2328;48.170;11.602;2023-02-16T14:08:18;2.80;;;1.90;;
4630;SDS011;2328;48.170;11.602;2023-02-16T14:11:03;3.73;;;1.90;;
4630;SDS011;2328;48.170;11.602;2023-02-16T14:13:43;3.23;;;2.60;;
4630;SDS011;2328;48.170;11.602;2023-02-16T14:16:24;4.70;;;2.40;;
4630;SDS011;2328;48.170;11.602;2023-02-16T14:18:55;5.97;;;1.93;;
4630;SDS011;2328;48.170;11.602;2023-02-16T14:21:26;2.03;;;1.77;;
4630;SDS011;2328;48.170;11.602;2023-02-16T14:23:57;2.67;;;2.00;;
4630;SDS011;2328;48.170;11.602;2023-02-16T14:26:26;3.27;;;1.67;;
4630;SDS011;2328;48.170;11.602;2023-02-16T14:28:57;3.67;;;2.10;;
4630;SDS011;2328;48.170;11.602;2023-02-16T14:31:26;5.73;;;2.13;;
4630;SDS011;2328;48.170;11.602;2023-02-16T14:33:59;2.37;;;1.77;;
4630;SDS011;2328;48.170;11.602;2023-02-16T14:36:29;6.90;;;1.97;;
4630;SDS011;2328;48.170;11.602;2023-02-16T14:38:59;3.93;;;2.57;;
4630;SDS011;2328;48.170;11.602;2023-02-16T14:41:28;3.67;;;2.20;;
4630;SDS011;2328;48.170;11.602;2023-02-16T14:46:55;3.10;;;2.17;;
4630;SDS011;2328;48.170;11.602;2023-02-16T14:49:39;4.23;;;1.40;;
4630;SDS011;2328;48.170;11.602;2023-02-16T14:52:24;3.27;;;1.90;;
4630;SDS011;2328;48.170;11.602;2023-02-16T14:57:46;2.63;;;1.70;;
4630;SDS011;2328;48.170;11.602;2023-02-16T15:00:21;3.33;;;1.73;;
4630;SDS011;2328;48.170;11.602;2023-02-16T15:02:54;3.97;;;1.93;;
4630;SDS011;2328;48.170;11.602;2023-02-16T15:05:24;5.10;;;2.00;;
4630;SDS011;2328;48.170;11.602;2023-02-16T15:07:57;14.93;;;2.77;;
4630;SDS011;2328;48.170;11.602;2023-02-16T15:10:28;2.80;;;1.80;;
4630;SDS011;2328;48.170;11.602;2023-02-16T15:12:58;4.00;;;2.03;;
4630;SDS011;2328;48.170;11.602;2023-02-16T15:15:28;3.13;;;1.67;;
4630;SDS011;2328;48.170;11.602;2023-02-16T15:17:59;2.07;;;1.83;;
4630;SDS011;2328;48.170;11.602;2023-02-16T15:20:29;3.27;;;1.97;;
4630;SDS011;2328;48.170;11.602;2023-02-16T15:22:59;2.20;;;1.90;;
4630;SDS011;2328;48.170;11.602;2023-02-16T15:25:29;1.73;;;1.50;;
4630;SDS011;2328;48.170;11.602;2023-02-16T15:28:01;2.33;;;1.50;;
4630;SDS011;2328;48.170;11.602;2023-02-16T15:30:31;5.70;;;2.30;;
4630;SDS011;2328;48.170;11.602;2023-02-16T15:33:01;3.63;;;1.80;;
4630;SDS011;2328;48.170;11.602;2023-02-16T15:35:31;4.40;;;2.40;;
4630;SDS011;2328;48.170;11.602;2023-02-16T15:38:03;3.90;;;2.00;;
4630;SDS011;2328;48.170;11.602;2023-02-16T15:40:31;3.80;;;2.20;;
4630;SDS011;2328;48.170;11.602;2023-02-16T15:43:06;9.63;;;3.10;;
4630;SDS011;2328;48.170;11.602;2023-02-16T15:45:36;3.13;;;1.57;;
4630;SDS011;2328;48.170;11.602;2023-02-16T15:48:24;4.33;;;3.27;;
4630;SDS011;2328;48.170;11.602;2023-02-16T15:50:55;5.00;;;2.20;;
4630;SDS011;2328;48.170;11.602;2023-02-16T15:53:28;4.27;;;2.43;;